createdAt,value
2023-02-13T00:00:21.570Z,84.50
2023-02-13T00:02:51.270Z,84.40
2023-02-13T00:05:21.268Z,84.20
2023-02-13T00:07:51.052Z,83.90
2023-02-13T00:10:20.713Z,84.00
2023-02-13T00:12:50.313Z,83.80
2023-02-13T00:15:20.003Z,83.70
2023-02-13T00:17:49.622Z,84.40
2023-02-13T00:20:19.294Z,84.80
2023-02-13T00:22:49.163Z,84.70
2023-02-13T00:25:18.839Z,85.30
2023-02-13T00:27:48.583Z,85.00
2023-02-13T00:30:18.755Z,85.60
2023-02-13T00:32:48.421Z,85.70
2023-02-13T00:35:18.015Z,85.90
2023-02-13T00:37:47.652Z,85.70
2023-02-13T00:40:17.369Z,86.00
2023-02-13T00:42:46.888Z,86.40
2023-02-13T00:45:16.524Z,86.20
2023-02-13T00:47:46.131Z,85.90
2023-02-13T00:50:15.942Z,86.10
2023-02-13T00:52:46.119Z,86.40
2023-02-13T00:55:15.809Z,86.60
2023-02-13T00:57:45.556Z,86.10
2023-02-13T01:00:15.748Z,86.20
2023-02-13T01:02:45.938Z,86.10
2023-02-13T01:05:15.877Z,86.50
2023-02-13T01:07:45.479Z,86.30
2023-02-13T01:10:15.287Z,86.60
2023-02-13T01:12:44.877Z,86.50
2023-02-13T01:15:14.484Z,86.20
2023-02-13T01:17:44.260Z,85.80
2023-02-13T01:20:15.774Z,85.50
2023-02-13T01:22:46.354Z,85.70
2023-02-13T01:25:16.160Z,85.40
2023-02-13T01:27:45.826Z,85.40
2023-02-13T01:30:16.996Z,84.90
2023-02-13T01:32:48.380Z,84.50
2023-02-13T01:35:18.482Z,83.80
2023-02-13T01:37:48.114Z,83.50
2023-02-13T01:40:18.927Z,83.10
2023-02-13T01:42:48.637Z,82.20
2023-02-13T01:45:33.058Z,81.80
2023-02-13T01:48:06.882Z,81.20
2023-02-13T01:50:41.711Z,80.60
2023-02-13T01:53:19.888Z,79.90
2023-02-13T01:55:53.709Z,79.40
2023-02-13T01:58:27.246Z,78.70
2023-02-13T02:00:57.241Z,77.90
2023-02-13T02:03:34.255Z,77.40
2023-02-13T02:06:05.391Z,76.30
2023-02-13T02:08:36.205Z,75.50
2023-02-13T02:11:13.952Z,75.30
2023-02-13T02:13:43.865Z,74.40
2023-02-13T02:16:13.823Z,74.00
2023-02-13T02:18:46.538Z,73.50
2023-02-13T02:21:55.422Z,73.10
2023-02-13T02:24:53.284Z,72.20
2023-02-13T02:27:42.280Z,71.60
2023-02-13T02:30:28.264Z,70.30
2023-02-13T02:33:32.405Z,70.70
2023-02-13T02:36:41.279Z,70.20
2023-02-13T02:39:41.064Z,67.90
2023-02-13T02:42:49.858Z,68.30
2023-02-13T02:45:51.271Z,66.40
2023-02-13T02:49:06.125Z,66.10
2023-02-13T02:52:01.374Z,67.00
2023-02-13T02:55:05.102Z,65.20
2023-02-13T02:57:57.565Z,64.40
2023-02-13T03:00:49.742Z,62.70
2023-02-13T03:03:46.372Z,63.90
2023-02-13T03:06:56.007Z,64.40
2023-02-13T03:09:57.242Z,61.30
2023-02-13T03:12:50.974Z,61.20
2023-02-13T03:15:20.927Z,61.70
2023-02-13T03:18:10.094Z,62.20
2023-02-13T03:21:13.064Z,61.90
2023-02-13T03:24:21.849Z,60.10
2023-02-13T03:27:43.626Z,59.70
2023-02-13T03:30:34.494Z,60.50
2023-02-13T03:33:21.569Z,59.90
2023-02-13T03:36:25.365Z,60.30
2023-02-13T03:39:09.717Z,59.60
2023-02-13T03:42:08.170Z,59.70
2023-02-13T03:44:45.290Z,58.90
2023-02-13T03:47:16.969Z,59.70
2023-02-13T03:50:11.289Z,59.70
2023-02-13T03:53:03.059Z,59.80
2023-02-13T03:56:02.341Z,59.10
2023-02-13T03:59:02.724Z,59.40
2023-02-13T04:01:36.303Z,59.00
2023-02-13T04:04:27.587Z,59.00
2023-02-13T04:07:09.396Z,55.20
2023-02-13T04:09:42.965Z,56.50
2023-02-13T04:12:21.832Z,57.20
2023-02-13T04:15:02.137Z,57.00
2023-02-13T04:17:43.707Z,57.20
2023-02-13T04:20:14.944Z,57.30
2023-02-13T04:22:46.207Z,56.80
2023-02-13T04:25:18.378Z,56.80
2023-02-13T04:27:48.101Z,56.20
2023-02-13T04:30:17.839Z,54.50
2023-02-13T04:32:47.739Z,52.80
2023-02-13T04:35:17.635Z,49.90
2023-02-13T04:37:47.472Z,51.30
2023-02-13T04:40:17.242Z,50.70
2023-02-13T04:42:49.033Z,48.40
2023-02-13T04:45:19.247Z,48.90
2023-02-13T04:47:57.537Z,49.00
2023-02-13T04:50:29.376Z,49.70
2023-02-13T04:53:00.456Z,49.70
2023-02-13T04:55:31.106Z,49.40
2023-02-13T04:58:01.255Z,48.60
2023-02-13T05:00:31.969Z,48.50
2023-02-13T05:03:09.819Z,47.60
2023-02-13T05:05:39.444Z,47.40
2023-02-13T05:08:11.021Z,48.00
2023-02-13T05:10:40.524Z,46.10
2023-02-13T05:13:10.311Z,46.90
2023-02-13T05:15:39.955Z,44.70
2023-02-13T05:18:09.608Z,46.10
2023-02-13T05:20:39.290Z,46.70
2023-02-13T05:23:34.663Z,43.30
2023-02-13T05:26:04.726Z,45.20
2023-02-13T05:28:53.956Z,45.20
2023-02-13T05:31:23.722Z,42.00
2023-02-13T05:33:53.748Z,43.10
2023-02-13T05:36:23.495Z,42.00
2023-02-13T05:38:53.119Z,42.40
2023-02-13T05:41:22.767Z,43.00
2023-02-13T05:43:52.417Z,43.90
2023-02-13T05:46:22.099Z,44.30
2023-02-13T05:48:52.044Z,44.30
2023-02-13T05:51:22.699Z,43.60
2023-02-13T05:53:52.305Z,42.20
2023-02-13T05:56:21.901Z,42.60
2023-02-13T05:58:58.058Z,42.60
2023-02-13T06:01:27.938Z,43.60
2023-02-13T06:03:59.308Z,43.30
2023-02-13T06:06:30.143Z,42.80
2023-02-13T06:09:00.694Z,43.00
2023-02-13T06:11:30.533Z,43.60
2023-02-13T06:14:00.221Z,44.30
2023-02-13T06:16:32.073Z,43.90
2023-02-13T06:19:01.795Z,43.50
2023-02-13T06:21:31.473Z,42.90
2023-02-13T06:24:01.406Z,40.30
2023-02-13T06:26:31.143Z,40.80
2023-02-13T06:29:00.746Z,41.90
2023-02-13T06:31:30.471Z,41.60
2023-02-13T06:34:00.333Z,41.60
2023-02-13T06:36:29.939Z,42.30
2023-02-13T06:38:59.635Z,42.40
2023-02-13T06:41:29.229Z,42.40
2023-02-13T06:43:58.972Z,42.00
2023-02-13T06:46:28.640Z,40.60
2023-02-13T06:48:58.300Z,40.00
2023-02-13T06:51:27.958Z,38.50
2023-02-13T06:53:57.757Z,38.40
2023-02-13T06:56:28.104Z,39.30
2023-02-13T06:58:57.703Z,38.70
2023-02-13T07:01:27.390Z,38.30
2023-02-13T07:03:57.115Z,39.70
2023-02-13T07:06:26.725Z,40.10
2023-02-13T07:08:57.627Z,40.50
2023-02-13T07:11:28.111Z,40.40
2023-02-13T07:13:57.894Z,38.30
2023-02-13T07:16:27.719Z,38.90
2023-02-13T07:18:57.309Z,39.50
2023-02-13T07:21:26.962Z,39.70
2023-02-13T07:23:56.727Z,39.50
2023-02-13T07:26:28.133Z,37.50
2023-02-13T07:29:10.408Z,36.60
2023-02-13T07:31:41.543Z,35.80
2023-02-13T07:34:11.512Z,36.50
2023-02-13T07:36:41.212Z,37.80
2023-02-13T07:39:11.012Z,38.20
2023-02-13T07:41:40.758Z,38.70
2023-02-13T07:44:10.632Z,38.40
2023-02-13T07:46:40.679Z,38.40
2023-02-13T07:49:10.456Z,36.10
2023-02-13T07:51:40.158Z,36.60
2023-02-13T07:54:09.806Z,37.50
2023-02-13T07:56:39.820Z,38.00
2023-02-13T07:59:09.563Z,38.30
2023-02-13T08:01:39.138Z,38.40
2023-02-13T08:04:08.948Z,36.30
2023-02-13T08:06:40.602Z,37.10
2023-02-13T08:09:35.445Z,38.00
2023-02-13T08:12:06.872Z,38.20
2023-02-13T08:14:36.896Z,38.70
2023-02-13T08:17:06.562Z,39.20
2023-02-13T08:19:36.398Z,39.00
2023-02-13T08:22:06.025Z,39.40
2023-02-13T08:24:35.869Z,39.50
2023-02-13T08:27:05.706Z,38.40
2023-02-13T08:29:36.281Z,38.40
2023-02-13T08:32:06.071Z,38.70
2023-02-13T08:34:36.083Z,37.50
2023-02-13T08:37:06.326Z,38.10
2023-02-13T08:39:35.936Z,38.30
2023-02-13T08:42:05.838Z,38.40
2023-02-13T08:44:35.664Z,38.60
2023-02-13T08:47:05.885Z,37.10
2023-02-13T08:49:36.154Z,36.00
2023-02-13T08:52:07.377Z,37.10
2023-02-13T08:54:37.983Z,36.40
2023-02-13T08:57:07.597Z,36.90
2023-02-13T08:59:37.212Z,37.60
2023-02-13T09:02:06.968Z,36.50
2023-02-13T09:04:36.633Z,37.10
2023-02-13T09:07:06.533Z,37.60
2023-02-13T09:09:36.286Z,38.10
2023-02-13T09:12:06.051Z,38.40
2023-02-13T09:14:36.403Z,37.40
2023-02-13T09:17:06.157Z,37.00
2023-02-13T09:19:35.851Z,37.70
2023-02-13T09:22:05.535Z,37.60
2023-02-13T09:24:35.112Z,38.30
2023-02-13T09:27:06.388Z,38.60
2023-02-13T09:29:36.219Z,38.60
2023-02-13T09:32:07.784Z,38.60
2023-02-13T09:34:37.527Z,39.30
2023-02-13T09:37:07.196Z,38.60
2023-02-13T09:39:36.816Z,39.30
2023-02-13T09:42:17.380Z,39.40
2023-02-13T09:44:48.615Z,39.70
2023-02-13T09:47:38.975Z,39.20
2023-02-13T09:50:29.686Z,39.50
2023-02-13T09:53:01.051Z,39.60
2023-02-13T09:55:57.955Z,39.80
2023-02-13T09:59:00.839Z,40.20
2023-02-13T10:01:49.930Z,40.00
2023-02-13T10:04:50.329Z,39.90
2023-02-13T10:07:56.447Z,40.10
2023-02-13T10:10:53.245Z,40.30
2023-02-13T10:14:02.015Z,40.30
2023-02-13T10:16:52.668Z,40.90
2023-02-13T10:19:46.402Z,41.00
2023-02-13T10:22:33.261Z,41.10
2023-02-13T10:25:27.235Z,41.30
2023-02-13T10:28:13.096Z,41.30
2023-02-13T10:30:53.840Z,41.50
2023-02-13T10:33:49.647Z,41.70
2023-02-13T10:36:23.654Z,41.90
2023-02-13T10:39:32.473Z,42.10
2023-02-13T10:42:30.780Z,42.30
2023-02-13T10:45:28.541Z,43.20
2023-02-13T10:48:28.717Z,43.20
2023-02-13T10:51:23.236Z,43.70
2023-02-13T10:54:24.152Z,43.80
2023-02-13T10:57:27.913Z,44.00
2023-02-13T11:00:36.677Z,43.80
2023-02-13T11:03:06.785Z,43.80
2023-02-13T11:05:41.470Z,43.40
2023-02-13T11:08:25.776Z,43.50
2023-02-13T11:10:55.605Z,43.60
2023-02-13T11:13:28.124Z,43.80
2023-02-13T11:16:07.851Z,44.10
2023-02-13T11:18:45.901Z,43.90
2023-02-13T11:21:25.431Z,44.10
2023-02-13T11:24:01.084Z,44.20
2023-02-13T11:26:36.600Z,44.30
2023-02-13T11:29:22.876Z,44.30
2023-02-13T11:32:23.529Z,44.30
2023-02-13T11:34:54.074Z,44.40
2023-02-13T11:37:33.351Z,44.60
2023-02-13T11:40:23.064Z,44.90
2023-02-13T11:42:54.013Z,45.10
2023-02-13T11:45:26.473Z,45.40
2023-02-13T11:47:58.106Z,45.70
2023-02-13T11:50:31.359Z,45.90
2023-02-13T11:53:09.559Z,46.00
2023-02-13T11:55:41.673Z,46.20
2023-02-13T11:58:32.523Z,46.30
2023-02-13T12:01:30.168Z,46.60
2023-02-13T12:04:09.332Z,46.80
2023-02-13T12:06:41.856Z,47.00
2023-02-13T12:09:17.524Z,47.00
2023-02-13T12:11:53.411Z,47.10
2023-02-13T12:14:28.384Z,47.30
2023-02-13T12:17:06.917Z,47.60
2023-02-13T12:19:47.330Z,47.90
2023-02-13T12:22:34.873Z,48.10
2023-02-13T12:25:43.781Z,48.40
2023-02-13T12:28:53.228Z,49.00
2023-02-13T12:31:47.644Z,49.60
2023-02-13T12:34:57.016Z,49.80
2023-02-13T12:37:54.771Z,50.30
2023-02-13T12:41:00.032Z,50.40
2023-02-13T12:44:09.116Z,50.60
2023-02-13T12:47:00.373Z,50.80
2023-02-13T12:50:03.238Z,51.00
2023-02-13T12:53:06.577Z,51.10
2023-02-13T12:56:15.319Z,51.30
2023-02-13T12:59:24.136Z,52.10
2023-02-13T13:02:32.870Z,52.60
2023-02-13T13:05:36.201Z,52.70
2023-02-13T13:08:45.133Z,52.80
2023-02-13T13:11:53.976Z,52.70
2023-02-13T13:14:51.249Z,52.70
2023-02-13T13:17:54.920Z,52.90
2023-02-13T13:21:04.392Z,53.00
2023-02-13T13:24:02.010Z,52.90
2023-02-13T13:26:45.052Z,52.80
2023-02-13T13:29:21.978Z,52.60
2023-02-13T13:32:05.449Z,52.60
2023-02-13T13:34:37.397Z,53.00
2023-02-13T13:37:29.806Z,53.00
2023-02-13T13:40:38.898Z,53.30
2023-02-13T13:43:26.327Z,53.70
2023-02-13T13:46:20.772Z,54.00
2023-02-13T13:49:21.281Z,54.30
2023-02-13T13:51:51.277Z,54.30
2023-02-13T13:54:25.706Z,54.70
2023-02-13T13:57:15.138Z,55.20
2023-02-13T14:00:23.923Z,56.50
2023-02-13T14:03:32.823Z,57.30
2023-02-13T14:06:09.166Z,57.70
2023-02-13T14:09:03.426Z,57.80
2023-02-13T14:11:40.530Z,58.10
2023-02-13T14:14:49.558Z,58.10
2023-02-13T14:17:42.598Z,58.40
2023-02-13T14:20:52.561Z,58.50
2023-02-13T14:23:54.908Z,58.50
2023-02-13T14:26:33.713Z,58.60
2023-02-13T14:29:30.882Z,58.80
2023-02-13T14:32:25.242Z,60.00
2023-02-13T14:35:04.310Z,60.90
2023-02-13T14:37:41.889Z,61.60
2023-02-13T14:40:45.361Z,62.00
2023-02-13T14:43:36.976Z,62.00
2023-02-13T14:46:24.166Z,61.70
2023-02-13T14:49:10.185Z,61.20
2023-02-13T14:51:48.206Z,60.50
2023-02-13T14:54:36.800Z,60.80
2023-02-13T14:57:33.376Z,61.00
2023-02-13T15:00:11.096Z,59.70
2023-02-13T15:02:48.590Z,59.30
2023-02-13T15:05:23.999Z,59.00
2023-02-13T15:08:14.461Z,59.20
2023-02-13T15:10:51.307Z,59.60
2023-02-13T15:13:39.084Z,60.30
2023-02-13T15:16:11.507Z,61.00
2023-02-13T15:18:57.738Z,62.10
2023-02-13T15:21:34.840Z,61.10
2023-02-13T15:24:05.364Z,61.30
2023-02-13T15:26:35.127Z,61.80
2023-02-13T15:29:27.773Z,61.90
2023-02-13T15:31:59.855Z,61.90
2023-02-13T15:34:39.636Z,62.40
2023-02-13T15:37:22.019Z,62.20
2023-02-13T15:39:51.668Z,62.50
2023-02-13T15:42:22.090Z,63.00
2023-02-13T15:44:55.098Z,63.00
2023-02-13T15:47:33.982Z,62.70
2023-02-13T15:50:04.000Z,62.70
2023-02-13T15:52:38.951Z,62.80
2023-02-13T15:55:10.182Z,63.20
2023-02-13T15:57:40.148Z,62.30
2023-02-13T16:00:15.660Z,61.80
2023-02-13T16:02:49.373Z,61.60
2023-02-13T16:05:29.353Z,61.60
2023-02-13T16:08:03.297Z,61.30
2023-02-13T16:10:36.772Z,61.00
2023-02-13T16:13:09.348Z,60.90
2023-02-13T16:15:39.858Z,61.30
2023-02-13T16:18:21.875Z,62.00
2023-02-13T16:20:57.543Z,62.90
2023-02-13T16:23:28.196Z,63.00
2023-02-13T16:26:05.893Z,62.50
2023-02-13T16:28:36.350Z,62.20
2023-02-13T16:31:07.137Z,62.10
2023-02-13T16:33:39.654Z,62.00
2023-02-13T16:36:28.556Z,62.30
2023-02-13T16:38:58.480Z,62.60
2023-02-13T16:41:33.767Z,62.70
2023-02-13T16:44:05.940Z,62.80
2023-02-13T16:46:43.925Z,62.70
2023-02-13T16:49:20.154Z,62.70
2023-02-13T16:51:54.792Z,62.70
2023-02-13T16:54:38.411Z,62.60
2023-02-13T16:57:27.091Z,62.90
2023-02-13T17:00:18.648Z,62.90
2023-02-13T17:02:50.810Z,62.80
2023-02-13T17:05:33.754Z,63.20
2023-02-13T17:08:03.459Z,63.30
2023-02-13T17:10:39.242Z,63.40
2023-02-13T17:13:22.515Z,63.60
2023-02-13T17:15:53.507Z,63.90
2023-02-13T17:18:23.403Z,64.40
2023-02-13T17:20:53.412Z,65.00
2023-02-13T17:23:25.970Z,65.80
2023-02-13T17:25:58.966Z,66.10
2023-02-13T17:28:31.900Z,66.00
2023-02-13T17:31:02.428Z,66.40
2023-02-13T17:33:36.327Z,66.50
2023-02-13T17:36:06.285Z,66.50
2023-02-13T17:38:36.161Z,66.70
2023-02-13T17:41:06.215Z,66.70
2023-02-13T17:43:35.754Z,66.70
2023-02-13T17:46:05.870Z,67.00
2023-02-13T17:48:35.814Z,66.90
2023-02-13T17:51:06.429Z,67.50
2023-02-13T17:53:36.608Z,67.80
2023-02-13T17:56:06.337Z,68.50
2023-02-13T17:58:35.999Z,68.60
2023-02-13T18:01:06.015Z,68.60
2023-02-13T18:03:35.567Z,68.80
2023-02-13T18:06:05.290Z,69.10
2023-02-13T18:08:35.566Z,69.90
2023-02-13T18:11:11.000Z,70.00
2023-02-13T18:13:42.512Z,69.70
2023-02-13T18:16:12.573Z,69.50
2023-02-13T18:18:42.274Z,69.80
2023-02-13T18:21:12.751Z,69.70
2023-02-13T18:23:43.203Z,69.70
2023-02-13T18:26:13.830Z,69.50
2023-02-13T18:28:43.592Z,69.80
2023-02-13T18:31:13.617Z,69.90
2023-02-13T18:33:43.318Z,69.90
2023-02-13T18:36:13.888Z,70.20
2023-02-13T18:38:43.553Z,70.20
2023-02-13T18:41:14.791Z,70.40
2023-02-13T18:43:45.368Z,70.70
2023-02-13T18:46:16.408Z,70.60
2023-02-13T18:48:47.215Z,70.50
2023-02-13T18:51:18.827Z,70.90
2023-02-13T18:53:49.687Z,70.70
2023-02-13T18:56:22.035Z,70.70
2023-02-13T18:58:52.438Z,70.90
2023-02-13T19:01:24.466Z,71.10
2023-02-13T19:03:56.158Z,71.50
2023-02-13T19:06:27.690Z,71.40
2023-02-13T19:09:00.219Z,71.60
2023-02-13T19:11:30.480Z,71.50
2023-02-13T19:14:02.861Z,71.60
2023-02-13T19:16:34.238Z,71.50
2023-02-13T19:19:06.094Z,71.50
2023-02-13T19:21:37.675Z,71.80
2023-02-13T19:24:10.431Z,71.90
2023-02-13T19:26:40.787Z,72.20
2023-02-13T19:29:10.435Z,72.30
2023-02-13T19:31:40.208Z,72.40
2023-02-13T19:34:10.100Z,72.60
2023-02-13T19:36:39.705Z,72.60
2023-02-13T19:39:10.656Z,72.70
2023-02-13T19:41:42.211Z,72.80
2023-02-13T19:44:11.852Z,73.00
2023-02-13T19:46:41.983Z,73.00
2023-02-13T19:49:12.359Z,73.10
2023-02-13T19:51:44.073Z,73.30
2023-02-13T19:54:14.649Z,73.30
2023-02-13T19:56:45.342Z,73.20
2023-02-13T19:59:15.197Z,73.20
2023-02-13T20:01:44.902Z,73.20
2023-02-13T20:04:14.617Z,73.30
2023-02-13T20:06:45.898Z,73.30
2023-02-13T20:09:16.627Z,73.70
2023-02-13T20:11:48.163Z,74.30
2023-02-13T20:14:18.621Z,74.40
2023-02-13T20:16:49.570Z,74.50
2023-02-13T20:19:19.286Z,74.70
2023-02-13T20:21:49.057Z,74.50
2023-02-13T20:24:20.169Z,74.90
2023-02-13T20:26:50.750Z,74.80
2023-02-13T20:29:21.951Z,74.50
2023-02-13T20:31:53.995Z,74.80
2023-02-13T20:34:23.696Z,75.10
2023-02-13T20:36:53.482Z,75.30
2023-02-13T20:39:23.156Z,75.30
2023-02-13T20:41:53.596Z,76.00
2023-02-13T20:44:24.555Z,75.90
2023-02-13T20:46:59.155Z,75.60
2023-02-13T20:49:29.655Z,75.50
2023-02-13T20:51:59.336Z,76.00
2023-02-13T20:54:28.961Z,76.00
2023-02-13T20:56:58.654Z,75.90
2023-02-13T20:59:28.382Z,76.30
2023-02-13T21:01:57.989Z,76.40
2023-02-13T21:04:27.755Z,76.40
2023-02-13T21:06:57.378Z,76.30
2023-02-13T21:09:27.456Z,75.90
2023-02-13T21:11:57.159Z,76.30
2023-02-13T21:14:26.711Z,76.30
2023-02-13T21:16:56.350Z,77.10
2023-02-13T21:19:26.857Z,77.30
2023-02-13T21:21:56.530Z,77.30
2023-02-13T21:24:28.392Z,77.30
2023-02-13T21:26:58.703Z,77.30
2023-02-13T21:29:28.277Z,77.40
2023-02-13T21:31:57.938Z,77.00
2023-02-13T21:34:27.516Z,77.00
2023-02-13T21:36:57.904Z,77.10
2023-02-13T21:39:28.692Z,77.50
2023-02-13T21:41:58.320Z,77.70
2023-02-13T21:44:28.010Z,77.80
2023-02-13T21:46:58.088Z,78.00
2023-02-13T21:49:27.925Z,78.50
2023-02-13T21:51:57.461Z,78.60
2023-02-13T21:54:27.953Z,79.00
2023-02-13T21:56:58.659Z,78.80
2023-02-13T21:59:28.615Z,78.80
2023-02-13T22:02:00.814Z,78.50
2023-02-13T22:04:31.824Z,78.80
2023-02-13T22:07:02.246Z,78.90
2023-02-13T22:09:32.826Z,78.80
2023-02-13T22:12:03.484Z,78.70
2023-02-13T22:14:33.728Z,78.80
2023-02-13T22:17:03.349Z,78.90
2023-02-13T22:19:32.957Z,78.90
2023-02-13T22:22:02.882Z,78.90
2023-02-13T22:24:35.171Z,79.10
2023-02-13T22:27:07.537Z,79.30
2023-02-13T22:29:38.879Z,79.30
2023-02-13T22:32:09.612Z,79.70
2023-02-13T22:34:40.356Z,79.80
2023-02-13T22:37:11.085Z,79.60
2023-02-13T22:39:41.369Z,79.80
2023-02-13T22:42:10.947Z,79.70
2023-02-13T22:44:41.264Z,79.50
2023-02-13T22:47:11.173Z,79.70
2023-02-13T22:49:40.712Z,79.70
2023-02-13T22:52:12.327Z,79.90
2023-02-13T22:54:41.910Z,80.00
2023-02-13T22:57:11.560Z,79.90
2023-02-13T22:59:41.292Z,79.80
2023-02-13T23:02:11.946Z,79.90
2023-02-13T23:04:41.583Z,79.90
2023-02-13T23:07:12.445Z,80.00
2023-02-13T23:09:43.176Z,80.20
2023-02-13T23:12:32.419Z,80.10
2023-02-13T23:15:02.246Z,80.30
2023-02-13T23:17:51.576Z,80.40
2023-02-13T23:20:22.347Z,80.30
2023-02-13T23:22:54.917Z,80.50
2023-02-13T23:25:25.031Z,80.50
2023-02-13T23:27:58.378Z,80.40
2023-02-13T23:30:30.063Z,80.70
2023-02-13T23:33:01.800Z,80.60
2023-02-13T23:35:31.442Z,80.30
2023-02-13T23:38:02.326Z,80.20
2023-02-13T23:40:31.881Z,80.20
2023-02-13T23:43:01.563Z,80.10
2023-02-13T23:45:32.813Z,80.30
2023-02-13T23:48:05.206Z,80.20
2023-02-13T23:50:36.493Z,80.30
2023-02-13T23:53:05.981Z,80.30
2023-02-13T23:55:37.584Z,80.50
2023-02-13T23:58:07.172Z,80.50
